createdAt,value
2018-10-21T00:01:41.018Z,93.48
2018-10-21T00:04:45.643Z,93.56
2018-10-21T00:07:50.431Z,93.98
2018-10-21T00:10:55.064Z,93.60
2018-10-21T00:13:59.810Z,93.83
2018-10-21T00:17:04.300Z,94.57
2018-10-21T00:20:09.522Z,94.87
2018-10-21T00:23:14.164Z,95.25
2018-10-21T00:26:18.716Z,95.53
2018-10-21T00:29:23.253Z,95.17
2018-10-21T00:32:32.966Z,94.65
2018-10-21T00:35:37.820Z,94.57
2018-10-21T00:38:42.585Z,94.65
2018-10-21T00:41:47.302Z,95.21
2018-10-21T00:44:52.126Z,94.70
2018-10-21T00:47:56.833Z,94.94
2018-10-21T00:51:01.358Z,95.13
2018-10-21T00:54:10.655Z,95.25
2018-10-21T00:57:15.268Z,95.16
2018-10-21T01:00:19.757Z,95.35
2018-10-21T01:03:24.383Z,95.80
2018-10-21T01:06:29.017Z,95.17
2018-10-21T01:09:33.599Z,95.17
2018-10-21T01:12:38.191Z,95.33
2018-10-21T01:15:42.851Z,95.49
2018-10-21T01:18:47.472Z,95.06
2018-10-21T01:21:52.156Z,95.43
2018-10-21T01:24:56.811Z,96.10
2018-10-21T01:28:01.556Z,95.84
2018-10-21T01:31:06.767Z,96.29
2018-10-21T01:34:11.298Z,95.94
2018-10-21T01:37:15.895Z,95.69
2018-10-21T01:40:43.798Z,95.55
2018-10-21T01:43:48.376Z,95.36
2018-10-21T01:46:53.016Z,95.69
2018-10-21T01:49:57.801Z,95.04
2018-10-21T01:53:03.491Z,95.24
2018-10-21T01:56:08.205Z,95.52
2018-10-21T01:59:13.151Z,96.05
2018-10-21T02:02:17.704Z,96.13
2018-10-21T02:05:22.595Z,96.49
2018-10-21T02:08:27.200Z,96.47
2018-10-21T02:11:31.894Z,95.54
2018-10-21T02:14:36.533Z,95.09
2018-10-21T02:17:41.605Z,95.14
2018-10-21T02:20:46.306Z,95.46
2018-10-21T02:23:51.035Z,95.68
2018-10-21T02:26:55.850Z,95.55
2018-10-21T02:30:00.433Z,95.45
2018-10-21T02:33:05.364Z,95.23
2018-10-21T02:36:10.027Z,95.30
2018-10-21T02:39:14.749Z,95.26
2018-10-21T02:42:19.440Z,94.97
2018-10-21T02:45:23.995Z,95.31
2018-10-21T02:48:28.548Z,95.90
2018-10-21T02:51:33.353Z,95.89
2018-10-21T02:54:38.228Z,95.50
2018-10-21T02:57:42.907Z,96.01
2018-10-21T03:00:47.752Z,96.07
2018-10-21T03:03:52.522Z,96.34
2018-10-21T03:06:57.167Z,95.83
2018-10-21T03:10:01.967Z,95.94
2018-10-21T03:13:06.619Z,95.92
2018-10-21T03:16:11.274Z,95.71
2018-10-21T03:19:15.956Z,95.79
2018-10-21T03:22:20.505Z,95.48
2018-10-21T03:25:25.103Z,95.04
2018-10-21T03:28:29.762Z,94.60
2018-10-21T03:31:34.318Z,94.71
2018-10-21T03:34:38.859Z,94.37
2018-10-21T03:37:43.501Z,94.42
2018-10-21T03:40:48.067Z,93.65
2018-10-21T03:43:53.085Z,94.10
2018-10-21T03:46:57.801Z,94.38
2018-10-21T03:50:02.511Z,94.57
2018-10-21T03:53:07.321Z,95.08
2018-10-21T03:56:12.233Z,95.27
2018-10-21T03:59:16.841Z,95.10
2018-10-21T04:02:21.442Z,94.68
2018-10-21T04:05:26.138Z,94.60
2018-10-21T04:08:30.701Z,93.97
2018-10-21T04:11:35.210Z,93.59
2018-10-21T04:14:39.838Z,93.58
2018-10-21T04:17:44.463Z,93.21
2018-10-21T04:20:49.031Z,93.52
2018-10-21T04:23:53.707Z,93.41
2018-10-21T04:26:58.226Z,93.31
2018-10-21T04:30:02.859Z,93.35
2018-10-21T04:33:20.062Z,93.41
2018-10-21T04:36:31.006Z,93.22
2018-10-21T04:39:52.707Z,93.43
2018-10-21T04:42:57.261Z,93.20
2018-10-21T04:46:01.822Z,93.02
2018-10-21T04:49:06.466Z,92.93
2018-10-21T04:52:11.230Z,92.36
2018-10-21T04:55:16.779Z,92.68
2018-10-21T04:58:21.385Z,92.41
2018-10-21T05:01:26.032Z,92.39
2018-10-21T05:04:30.808Z,92.75
2018-10-21T05:07:35.583Z,92.62
2018-10-21T05:10:40.680Z,92.73
2018-10-21T05:13:45.259Z,92.79
2018-10-21T05:16:49.835Z,92.31
2018-10-21T05:19:54.382Z,91.78
2018-10-21T05:22:59.247Z,91.62
2018-10-21T05:26:03.923Z,91.93
2018-10-21T05:29:08.553Z,91.17
2018-10-21T05:32:13.121Z,91.05
2018-10-21T05:35:19.016Z,91.26
2018-10-21T05:38:23.580Z,90.82
2018-10-21T05:41:28.303Z,90.43
2018-10-21T05:44:32.852Z,90.36
2018-10-21T05:47:38.012Z,90.14
2018-10-21T05:50:42.555Z,89.85
2018-10-21T05:53:47.333Z,89.48
2018-10-21T05:56:52.222Z,89.75
2018-10-21T05:59:56.851Z,90.06
2018-10-21T06:03:01.449Z,89.96
2018-10-21T06:06:06.042Z,90.27
2018-10-21T06:09:12.024Z,89.32
2018-10-21T06:12:16.797Z,88.58
2018-10-21T06:15:21.300Z,89.49
2018-10-21T06:18:27.141Z,89.50
2018-10-21T06:21:31.747Z,89.69
2018-10-21T06:24:36.388Z,90.18
2018-10-21T06:27:41.489Z,90.78
2018-10-21T06:30:45.959Z,91.04
2018-10-21T06:33:50.702Z,91.23
2018-10-21T06:36:55.475Z,91.08
2018-10-21T06:40:00.067Z,90.42
2018-10-21T06:43:04.804Z,89.87
2018-10-21T06:46:09.459Z,89.62
2018-10-21T06:49:14.111Z,89.23
2018-10-21T06:52:18.869Z,88.76
2018-10-21T06:55:23.700Z,88.26
2018-10-21T06:58:28.555Z,87.20
2018-10-21T07:01:33.264Z,86.79
2018-10-21T07:04:38.053Z,87.49
2018-10-21T07:07:42.601Z,87.35
2018-10-21T07:10:47.347Z,86.56
2018-10-21T07:13:52.015Z,85.65
2018-10-21T07:16:56.622Z,84.31
2018-10-21T07:20:01.367Z,83.66
2018-10-21T07:23:06.245Z,83.68
2018-10-21T07:26:10.995Z,83.58
2018-10-21T07:29:15.501Z,82.74
2018-10-21T07:32:20.012Z,83.03
2018-10-21T07:35:24.617Z,81.80
2018-10-21T07:38:29.268Z,81.89
2018-10-21T07:41:34.129Z,81.01
2018-10-21T07:44:38.852Z,80.05
2018-10-21T07:47:43.540Z,81.20
2018-10-21T07:50:48.266Z,79.44
2018-10-21T07:53:53.316Z,79.26
2018-10-21T07:56:58.058Z,77.95
2018-10-21T08:00:02.647Z,77.12
2018-10-21T08:03:07.498Z,78.12
2018-10-21T08:06:33.163Z,78.06
2018-10-21T08:09:37.827Z,78.62
2018-10-21T08:12:42.505Z,77.83
2018-10-21T08:15:47.276Z,76.39
2018-10-21T08:18:52.635Z,75.32
2018-10-21T08:21:57.341Z,75.63
2018-10-21T08:25:01.981Z,75.01
2018-10-21T08:28:06.680Z,75.57
2018-10-21T08:31:11.275Z,73.82
2018-10-21T08:34:15.978Z,75.10
2018-10-21T08:37:20.770Z,73.43
2018-10-21T08:40:25.480Z,74.15
2018-10-21T08:43:30.293Z,73.18
2018-10-21T08:46:35.258Z,72.60
2018-10-21T08:49:39.851Z,72.34
2018-10-21T08:52:44.518Z,71.44
2018-10-21T08:55:49.508Z,71.45
2018-10-21T08:58:54.841Z,71.02
2018-10-21T09:01:59.493Z,70.96
2018-10-21T09:05:04.001Z,70.43
2018-10-21T09:08:08.609Z,68.64
2018-10-21T09:11:13.167Z,69.04
2018-10-21T09:14:17.734Z,68.47
2018-10-21T09:17:22.303Z,67.37
2018-10-21T09:20:26.875Z,65.30
2018-10-21T09:23:31.517Z,67.12
2018-10-21T09:26:36.507Z,66.83
2018-10-21T09:29:41.102Z,65.91
2018-10-21T09:32:45.681Z,64.78
2018-10-21T09:35:50.353Z,63.94
2018-10-21T09:38:54.953Z,62.79
2018-10-21T09:41:59.484Z,61.84
2018-10-21T09:45:04.133Z,61.96
2018-10-21T09:48:08.781Z,61.63
2018-10-21T09:51:13.402Z,59.82
2018-10-21T09:54:17.935Z,59.25
2018-10-21T09:57:22.497Z,59.70
2018-10-21T10:00:32.424Z,59.76
2018-10-21T10:03:37.003Z,59.17
2018-10-21T10:06:41.784Z,58.39
2018-10-21T10:09:46.358Z,58.86
2018-10-21T10:12:51.055Z,59.28
2018-10-21T10:15:55.827Z,57.23
2018-10-21T10:19:00.515Z,57.59
2018-10-21T10:22:05.301Z,56.12
2018-10-21T10:25:10.988Z,56.93
2018-10-21T10:28:15.773Z,56.84
2018-10-21T10:31:20.515Z,56.86
2018-10-21T10:34:25.321Z,55.97
2018-10-21T10:37:29.902Z,57.74
2018-10-21T10:40:34.541Z,57.15
2018-10-21T10:43:39.157Z,56.18
2018-10-21T10:46:43.696Z,55.75
2018-10-21T10:49:48.431Z,55.35
2018-10-21T10:52:53.296Z,54.42
2018-10-21T10:55:57.930Z,55.56
2018-10-21T10:59:02.578Z,55.19
2018-10-21T11:02:07.475Z,54.10
2018-10-21T11:05:12.207Z,55.32
2018-10-21T11:08:16.845Z,53.82
2018-10-21T11:11:21.411Z,54.86
2018-10-21T11:14:26.161Z,54.11
2018-10-21T11:17:30.745Z,54.09
2018-10-21T11:20:35.411Z,53.63
2018-10-21T11:23:40.091Z,54.31
2018-10-21T11:26:44.607Z,54.52
2018-10-21T11:29:49.545Z,53.82
2018-10-21T11:32:54.156Z,54.07
2018-10-21T11:35:58.766Z,53.23
2018-10-21T11:39:03.520Z,52.92
2018-10-21T11:42:08.345Z,53.96
2018-10-21T11:45:13.002Z,54.24
2018-10-21T11:48:17.666Z,52.74
2018-10-21T11:51:22.318Z,51.89
2018-10-21T11:54:27.057Z,53.09
2018-10-21T11:57:31.683Z,52.62
2018-10-21T12:00:36.332Z,51.85
2018-10-21T12:03:41.493Z,50.67
2018-10-21T12:06:46.198Z,51.02
2018-10-21T12:09:50.810Z,52.03
2018-10-21T12:12:55.827Z,51.05
2018-10-21T12:16:00.406Z,51.30
2018-10-21T12:19:05.351Z,49.86
2018-10-21T12:22:10.055Z,47.42
2018-10-21T12:25:14.711Z,47.77
2018-10-21T12:28:20.608Z,49.05
2018-10-21T12:31:25.461Z,48.39
2018-10-21T12:34:30.326Z,46.74
2018-10-21T12:37:35.069Z,47.97
2018-10-21T12:40:39.851Z,49.85
2018-10-21T12:43:44.491Z,50.62
2018-10-21T12:46:49.311Z,51.69
2018-10-21T12:49:54.095Z,51.62
2018-10-21T12:52:58.754Z,50.86
2018-10-21T12:56:03.500Z,50.99
2018-10-21T12:59:08.104Z,50.93
2018-10-21T13:02:12.781Z,51.71
2018-10-21T13:05:17.436Z,49.85
2018-10-21T13:08:22.026Z,48.61
2018-10-21T13:11:26.667Z,48.81
2018-10-21T13:14:31.416Z,48.90
2018-10-21T13:17:35.941Z,47.96
2018-10-21T13:20:40.769Z,47.98
2018-10-21T13:23:45.449Z,48.02
2018-10-21T13:26:50.084Z,48.54
2018-10-21T13:29:54.752Z,47.92
2018-10-21T13:32:59.319Z,49.04
2018-10-21T13:36:04.074Z,47.75
2018-10-21T13:39:12.392Z,46.82
2018-10-21T13:42:17.099Z,47.59
2018-10-21T13:45:21.667Z,47.87
2018-10-21T13:48:26.277Z,47.39
2018-10-21T13:51:31.073Z,46.86
2018-10-21T13:54:35.529Z,47.87
2018-10-21T13:57:40.056Z,46.89
2018-10-21T14:00:44.834Z,47.08
2018-10-21T14:03:49.954Z,47.14
2018-10-21T14:06:54.907Z,46.63
2018-10-21T14:09:59.554Z,47.14
2018-10-21T14:13:04.296Z,46.98
2018-10-21T14:16:08.967Z,46.60
2018-10-21T14:19:13.562Z,46.63
2018-10-21T14:22:18.364Z,46.93
2018-10-21T14:25:22.787Z,47.45
2018-10-21T14:28:27.355Z,46.97
2018-10-21T14:31:32.119Z,47.12
2018-10-21T14:34:36.930Z,47.57
2018-10-21T14:37:41.570Z,47.77
2018-10-21T14:40:46.183Z,47.61
2018-10-21T14:43:52.179Z,48.23
2018-10-21T14:46:56.953Z,48.77
2018-10-21T14:50:01.673Z,48.35
2018-10-21T14:53:06.562Z,49.60
2018-10-21T14:56:11.422Z,52.03
2018-10-21T14:59:15.836Z,52.43
2018-10-21T15:02:20.541Z,53.09
2018-10-21T15:05:25.212Z,54.12
2018-10-21T15:08:30.098Z,54.87
2018-10-21T15:11:34.934Z,55.62
2018-10-21T15:14:39.754Z,55.65
2018-10-21T15:17:45.553Z,55.87
2018-10-21T15:20:51.316Z,57.13
2018-10-21T15:23:56.076Z,57.60
2018-10-21T15:27:00.734Z,57.82
2018-10-21T15:30:06.797Z,56.22
2018-10-21T15:33:11.259Z,58.30
2018-10-21T15:36:16.060Z,58.39
2018-10-21T15:39:20.674Z,58.03
2018-10-21T15:42:25.785Z,58.63
2018-10-21T15:45:30.394Z,58.22
2018-10-21T15:48:35.336Z,59.89
2018-10-21T15:51:40.369Z,59.69
2018-10-21T15:54:45.100Z,60.68
2018-10-21T15:57:49.762Z,60.63
2018-10-21T16:00:54.531Z,61.32
2018-10-21T16:03:59.292Z,61.44
2018-10-21T16:07:04.033Z,63.14
2018-10-21T16:10:09.924Z,64.33
2018-10-21T16:13:14.587Z,64.66
2018-10-21T16:16:19.318Z,65.89
2018-10-21T16:19:23.955Z,65.71
2018-10-21T16:22:28.779Z,67.03
2018-10-21T16:25:33.667Z,67.89
2018-10-21T16:28:38.440Z,68.09
2018-10-21T16:31:43.201Z,67.99
2018-10-21T16:34:47.930Z,68.18
2018-10-21T16:37:52.610Z,67.76
2018-10-21T16:40:57.357Z,68.30
2018-10-21T16:44:02.111Z,69.97
2018-10-21T16:47:07.218Z,71.15
2018-10-21T16:50:14.372Z,71.99
2018-10-21T16:53:19.274Z,72.03
2018-10-21T16:56:23.988Z,72.05
2018-10-21T16:59:28.820Z,72.42
2018-10-21T17:02:33.437Z,73.70
2018-10-21T17:05:38.216Z,74.52
2018-10-21T17:08:42.911Z,74.65
2018-10-21T17:11:47.759Z,75.04
2018-10-21T17:14:52.713Z,76.12
2018-10-21T17:17:57.406Z,76.38
2018-10-21T17:21:02.142Z,76.89
2018-10-21T17:24:06.795Z,77.17
2018-10-21T17:27:11.493Z,78.08
2018-10-21T17:30:17.550Z,77.85
2018-10-21T17:33:22.490Z,77.77
2018-10-21T17:36:27.208Z,77.73
2018-10-21T17:39:32.099Z,78.93
2018-10-21T17:42:36.748Z,78.79
2018-10-21T17:45:41.446Z,78.75
2018-10-21T17:48:46.237Z,79.22
2018-10-21T17:51:50.872Z,79.68
2018-10-21T17:54:55.708Z,80.45
2018-10-21T17:58:00.938Z,80.68
2018-10-21T18:01:06.221Z,80.58
2018-10-21T18:04:11.042Z,81.32
2018-10-21T18:07:15.696Z,81.29
2018-10-21T18:10:20.495Z,81.19
2018-10-21T18:13:25.092Z,81.66
2018-10-21T18:16:29.875Z,82.38
2018-10-21T18:19:34.741Z,82.13
2018-10-21T18:22:39.629Z,82.57
2018-10-21T18:25:44.509Z,82.77
2018-10-21T18:28:49.173Z,82.39
2018-10-21T18:31:54.043Z,83.35
2018-10-21T18:34:58.737Z,83.59
2018-10-21T18:38:03.366Z,83.46
2018-10-21T18:41:08.112Z,83.37
2018-10-21T18:44:12.800Z,82.93
2018-10-21T18:47:17.527Z,83.31
2018-10-21T18:50:22.253Z,83.91
2018-10-21T18:53:26.883Z,84.37
2018-10-21T18:56:31.559Z,83.83
2018-10-21T18:59:36.226Z,83.84
2018-10-21T19:02:41.065Z,84.79
2018-10-21T19:05:45.751Z,84.35
2018-10-21T19:08:50.378Z,85.13
2018-10-21T19:11:55.083Z,85.53
2018-10-21T19:14:59.787Z,86.34
2018-10-21T19:18:04.385Z,86.95
2018-10-21T19:21:09.280Z,87.01
2018-10-21T19:24:14.012Z,87.14
2018-10-21T19:27:18.915Z,87.42
2018-10-21T19:30:23.942Z,87.72
2018-10-21T19:33:28.932Z,87.78
2018-10-21T19:36:33.791Z,88.22
2018-10-21T19:39:38.672Z,87.77
2018-10-21T19:42:44.913Z,87.41
2018-10-21T19:45:50.697Z,87.35
2018-10-21T19:48:55.342Z,87.28
2018-10-21T19:52:00.039Z,87.86
2018-10-21T19:55:04.851Z,87.90
2018-10-21T19:58:09.645Z,87.79
2018-10-21T20:01:14.635Z,88.91
2018-10-21T20:04:19.283Z,89.35
2018-10-21T20:07:25.038Z,89.73
2018-10-21T20:10:29.804Z,89.37
2018-10-21T20:13:34.689Z,89.30
2018-10-21T20:16:39.587Z,89.44
2018-10-21T20:19:44.471Z,89.75
2018-10-21T20:22:49.445Z,89.32
2018-10-21T20:25:54.362Z,90.20
2018-10-21T20:28:59.209Z,90.45
2018-10-21T20:32:04.097Z,90.29
2018-10-21T20:35:09.669Z,90.43
2018-10-21T20:38:14.604Z,90.53
2018-10-21T20:41:19.377Z,90.81
2018-10-21T20:44:24.058Z,91.13
2018-10-21T20:47:28.795Z,91.49
2018-10-21T20:50:33.558Z,91.33
2018-10-21T20:53:38.175Z,91.30
2018-10-21T20:56:42.933Z,92.10
2018-10-21T20:59:48.285Z,92.19
2018-10-21T21:02:53.107Z,92.13
2018-10-21T21:05:57.799Z,92.33
2018-10-21T21:09:02.473Z,92.97
2018-10-21T21:12:07.493Z,93.25
2018-10-21T21:15:12.192Z,93.10
2018-10-21T21:18:17.077Z,93.59
2018-10-21T21:21:21.698Z,93.77
2018-10-21T21:24:26.537Z,93.79
2018-10-21T21:27:31.213Z,93.88
2018-10-21T21:30:35.997Z,93.80
2018-10-21T21:33:40.735Z,93.61
2018-10-21T21:36:45.394Z,93.51
2018-10-21T21:39:50.246Z,94.00
2018-10-21T21:42:54.985Z,93.76
2018-10-21T21:45:59.874Z,93.63
2018-10-21T21:49:04.992Z,94.04
2018-10-21T21:52:09.769Z,94.01
2018-10-21T21:55:14.548Z,94.33
2018-10-21T21:58:19.481Z,94.68
2018-10-21T22:01:24.147Z,94.21
2018-10-21T22:04:28.923Z,93.39
2018-10-21T22:07:33.529Z,93.87
2018-10-21T22:10:38.123Z,93.71
2018-10-21T22:13:42.685Z,93.58
2018-10-21T22:16:47.261Z,93.79
2018-10-21T22:19:51.951Z,94.11
2018-10-21T22:22:56.521Z,94.27
2018-10-21T22:26:01.121Z,94.65
2018-10-21T22:29:06.000Z,94.44
2018-10-21T22:32:10.639Z,94.69
2018-10-21T22:35:15.356Z,93.86
2018-10-21T22:38:20.034Z,93.88
2018-10-21T22:41:24.584Z,94.50
2018-10-21T22:44:29.304Z,94.67
2018-10-21T22:47:33.862Z,94.86
2018-10-21T22:50:38.535Z,95.04
2018-10-21T22:53:43.174Z,95.10
2018-10-21T22:56:47.771Z,95.30
2018-10-21T22:59:52.452Z,95.46
2018-10-21T23:02:57.189Z,95.45
2018-10-21T23:06:01.901Z,95.76
2018-10-21T23:09:10.359Z,95.64
2018-10-21T23:12:15.146Z,95.54
2018-10-21T23:15:19.694Z,95.35
2018-10-21T23:18:24.320Z,95.24
2018-10-21T23:21:29.056Z,95.64
2018-10-21T23:24:33.887Z,95.28
2018-10-21T23:27:38.496Z,95.67
2018-10-21T23:30:43.125Z,95.69
2018-10-21T23:33:47.701Z,95.81
2018-10-21T23:36:52.384Z,95.68
2018-10-21T23:39:57.196Z,96.01
2018-10-21T23:43:01.820Z,95.99
2018-10-21T23:46:06.531Z,95.45
2018-10-21T23:49:11.032Z,95.45
2018-10-21T23:52:15.917Z,95.45
2018-10-21T23:55:20.506Z,95.82
2018-10-21T23:58:25.069Z,95.13
